sensor_id;sensor_type;location;lat;lon;timestamp;P1;durP1;ratioP1;P2;durP2;ratioP2
48215;SDS011;34005;48.844;10.098;2024-03-02T00:00:53;21.55;;;14.18;;
48215;SDS011;34005;48.844;10.098;2024-03-02T00:03:21;21.33;;;14.57;;
48215;SDS011;34005;48.844;10.098;2024-03-02T00:05:50;21.23;;;15.43;;
48215;SDS011;34005;48.844;10.098;2024-03-02T00:08:22;21.08;;;13.80;;
48215;SDS011;34005;48.844;10.098;2024-03-02T00:10:53;20.92;;;13.88;;
48215;SDS011;34005;48.844;10.098;2024-03-02T00:13:26;21.48;;;14.05;;
48215;SDS011;34005;48.844;10.098;2024-03-02T00:15:53;17.70;;;13.38;;
48215;SDS011;34005;48.844;10.098;2024-03-02T00:18:24;20.52;;;13.77;;
48215;SDS011;34005;48.844;10.098;2024-03-02T00:20:55;23.05;;;14.85;;
48215;SDS011;34005;48.844;10.098;2024-03-02T00:23:23;20.70;;;14.18;;
48215;SDS011;34005;48.844;10.098;2024-03-02T00:25:52;19.27;;;13.15;;
48215;SDS011;34005;48.844;10.098;2024-03-02T00:28:22;18.27;;;13.20;;
48215;SDS011;34005;48.844;10.098;2024-03-02T00:30:52;18.55;;;13.95;;
48215;SDS011;34005;48.844;10.098;2024-03-02T00:33:23;22.45;;;14.25;;
48215;SDS011;34005;48.844;10.098;2024-03-02T00:35:55;20.67;;;13.20;;
48215;SDS011;34005;48.844;10.098;2024-03-02T00:38:23;20.27;;;13.95;;
48215;SDS011;34005;48.844;10.098;2024-03-02T00:40:51;18.80;;;13.45;;
48215;SDS011;34005;48.844;10.098;2024-03-02T00:46:17;19.63;;;14.00;;
48215;SDS011;34005;48.844;10.098;2024-03-02T00:48:48;19.90;;;14.40;;
48215;SDS011;34005;48.844;10.098;2024-03-02T00:51:23;20.70;;;14.50;;
48215;SDS011;34005;48.844;10.098;2024-03-02T00:53:51;19.73;;;14.32;;
48215;SDS011;34005;48.844;10.098;2024-03-02T00:56:22;21.52;;;15.48;;
48215;SDS011;34005;48.844;10.098;2024-03-02T00:58:50;23.75;;;15.82;;
48215;SDS011;34005;48.844;10.098;2024-03-02T01:01:18;22.88;;;14.27;;
48215;SDS011;34005;48.844;10.098;2024-03-02T01:03:47;23.27;;;15.90;;
48215;SDS011;34005;48.844;10.098;2024-03-02T01:06:15;25.92;;;17.40;;
48215;SDS011;34005;48.844;10.098;2024-03-02T01:08:44;23.15;;;16.02;;
48215;SDS011;34005;48.844;10.098;2024-03-02T01:11:12;21.50;;;15.48;;
48215;SDS011;34005;48.844;10.098;2024-03-02T01:13:40;24.10;;;15.65;;
48215;SDS011;34005;48.844;10.098;2024-03-02T01:16:07;24.27;;;15.45;;
48215;SDS011;34005;48.844;10.098;2024-03-02T01:18:35;22.55;;;15.38;;
48215;SDS011;34005;48.844;10.098;2024-03-02T01:21:03;24.65;;;16.63;;
48215;SDS011;34005;48.844;10.098;2024-03-02T01:23:30;23.67;;;15.27;;
48215;SDS011;34005;48.844;10.098;2024-03-02T01:26:00;22.17;;;15.50;;
48215;SDS011;34005;48.844;10.098;2024-03-02T01:28:27;23.05;;;14.85;;
48215;SDS011;34005;48.844;10.098;2024-03-02T01:30:55;20.92;;;13.85;;
48215;SDS011;34005;48.844;10.098;2024-03-02T01:33:22;19.92;;;14.70;;
48215;SDS011;34005;48.844;10.098;2024-03-02T01:35:50;25.08;;;16.13;;
48215;SDS011;34005;48.844;10.098;2024-03-02T01:38:18;21.02;;;14.93;;
48215;SDS011;34005;48.844;10.098;2024-03-02T01:40:46;22.85;;;15.07;;
48215;SDS011;34005;48.844;10.098;2024-03-02T01:43:15;17.98;;;11.98;;
48215;SDS011;34005;48.844;10.098;2024-03-02T01:45:43;25.98;;;14.25;;
48215;SDS011;34005;48.844;10.098;2024-03-02T01:48:11;23.25;;;15.10;;
48215;SDS011;34005;48.844;10.098;2024-03-02T01:50:39;21.80;;;15.20;;
48215;SDS011;34005;48.844;10.098;2024-03-02T01:53:06;20.75;;;13.63;;
48215;SDS011;34005;48.844;10.098;2024-03-02T01:55:36;20.52;;;14.10;;
48215;SDS011;34005;48.844;10.098;2024-03-02T01:58:03;19.02;;;13.60;;
48215;SDS011;34005;48.844;10.098;2024-03-02T02:00:32;21.42;;;14.30;;
48215;SDS011;34005;48.844;10.098;2024-03-02T02:03:00;23.75;;;15.60;;
48215;SDS011;34005;48.844;10.098;2024-03-02T02:05:28;23.45;;;15.88;;
48215;SDS011;34005;48.844;10.098;2024-03-02T02:07:55;22.95;;;15.85;;
48215;SDS011;34005;48.844;10.098;2024-03-02T02:10:24;23.00;;;15.38;;
48215;SDS011;34005;48.844;10.098;2024-03-02T02:12:52;23.98;;;15.38;;
48215;SDS011;34005;48.844;10.098;2024-03-02T02:15:23;23.77;;;15.85;;
48215;SDS011;34005;48.844;10.098;2024-03-02T02:17:53;23.25;;;15.25;;
48215;SDS011;34005;48.844;10.098;2024-03-02T02:20:21;24.58;;;16.52;;
48215;SDS011;34005;48.844;10.098;2024-03-02T02:22:57;26.67;;;17.00;;
48215;SDS011;34005;48.844;10.098;2024-03-02T02:25:25;27.67;;;16.13;;
48215;SDS011;34005;48.844;10.098;2024-03-02T02:27:53;23.42;;;15.70;;
48215;SDS011;34005;48.844;10.098;2024-03-02T02:30:22;24.70;;;16.38;;
48215;SDS011;34005;48.844;10.098;2024-03-02T02:32:50;26.50;;;16.85;;
48215;SDS011;34005;48.844;10.098;2024-03-02T02:35:18;27.33;;;17.83;;
48215;SDS011;34005;48.844;10.098;2024-03-02T02:37:46;24.63;;;16.30;;
48215;SDS011;34005;48.844;10.098;2024-03-02T02:40:16;27.27;;;18.02;;
48215;SDS011;34005;48.844;10.098;2024-03-02T02:42:45;28.42;;;18.05;;
48215;SDS011;34005;48.844;10.098;2024-03-02T02:45:13;25.48;;;16.70;;
48215;SDS011;34005;48.844;10.098;2024-03-02T02:47:41;27.15;;;16.75;;
48215;SDS011;34005;48.844;10.098;2024-03-02T02:50:10;26.80;;;17.02;;
48215;SDS011;34005;48.844;10.098;2024-03-02T02:52:39;26.77;;;17.13;;
48215;SDS011;34005;48.844;10.098;2024-03-02T02:55:08;26.88;;;16.98;;
48215;SDS011;34005;48.844;10.098;2024-03-02T02:57:39;27.17;;;17.02;;
48215;SDS011;34005;48.844;10.098;2024-03-02T03:00:09;26.23;;;17.83;;
48215;SDS011;34005;48.844;10.098;2024-03-02T03:02:42;26.10;;;16.80;;
48215;SDS011;34005;48.844;10.098;2024-03-02T03:05:11;28.15;;;15.63;;
48215;SDS011;34005;48.844;10.098;2024-03-02T03:07:41;26.67;;;17.02;;
48215;SDS011;34005;48.844;10.098;2024-03-02T03:10:10;24.00;;;15.80;;
48215;SDS011;34005;48.844;10.098;2024-03-02T03:12:39;26.63;;;17.90;;
48215;SDS011;34005;48.844;10.098;2024-03-02T03:15:09;24.20;;;15.57;;
48215;SDS011;34005;48.844;10.098;2024-03-02T03:17:37;28.65;;;16.98;;
48215;SDS011;34005;48.844;10.098;2024-03-02T03:20:05;26.65;;;17.42;;
48215;SDS011;34005;48.844;10.098;2024-03-02T03:22:36;26.80;;;17.73;;
48215;SDS011;34005;48.844;10.098;2024-03-02T03:25:04;24.98;;;16.63;;
48215;SDS011;34005;48.844;10.098;2024-03-02T03:27:34;25.05;;;16.73;;
48215;SDS011;34005;48.844;10.098;2024-03-02T03:30:04;27.88;;;17.40;;
48215;SDS011;34005;48.844;10.098;2024-03-02T03:32:33;28.15;;;18.02;;
48215;SDS011;34005;48.844;10.098;2024-03-02T03:35:01;29.90;;;17.70;;
48215;SDS011;34005;48.844;10.098;2024-03-02T03:37:29;27.38;;;17.25;;
48215;SDS011;34005;48.844;10.098;2024-03-02T03:40:00;30.70;;;17.98;;
48215;SDS011;34005;48.844;10.098;2024-03-02T03:42:28;25.27;;;16.30;;
48215;SDS011;34005;48.844;10.098;2024-03-02T03:44:56;28.30;;;17.27;;
48215;SDS011;34005;48.844;10.098;2024-03-02T03:47:25;27.50;;;16.80;;
48215;SDS011;34005;48.844;10.098;2024-03-02T03:49:52;27.92;;;15.88;;
48215;SDS011;34005;48.844;10.098;2024-03-02T03:52:20;26.23;;;16.15;;
48215;SDS011;34005;48.844;10.098;2024-03-02T03:54:48;30.27;;;18.05;;
48215;SDS011;34005;48.844;10.098;2024-03-02T03:57:16;28.00;;;16.63;;
48215;SDS011;34005;48.844;10.098;2024-03-02T03:59:43;27.58;;;18.00;;
48215;SDS011;34005;48.844;10.098;2024-03-02T04:02:12;30.05;;;19.08;;
48215;SDS011;34005;48.844;10.098;2024-03-02T04:04:41;28.40;;;17.13;;
48215;SDS011;34005;48.844;10.098;2024-03-02T04:07:09;27.25;;;17.35;;
48215;SDS011;34005;48.844;10.098;2024-03-02T04:09:37;25.70;;;16.60;;
48215;SDS011;34005;48.844;10.098;2024-03-02T04:12:05;25.90;;;15.40;;
48215;SDS011;34005;48.844;10.098;2024-03-02T04:14:32;26.60;;;15.45;;
48215;SDS011;34005;48.844;10.098;2024-03-02T04:17:00;27.63;;;16.95;;
48215;SDS011;34005;48.844;10.098;2024-03-02T04:19:27;29.50;;;17.35;;
48215;SDS011;34005;48.844;10.098;2024-03-02T04:21:56;27.38;;;16.20;;
48215;SDS011;34005;48.844;10.098;2024-03-02T04:24:30;22.48;;;14.85;;
48215;SDS011;34005;48.844;10.098;2024-03-02T04:26:58;25.70;;;16.85;;
48215;SDS011;34005;48.844;10.098;2024-03-02T04:29:25;26.63;;;17.65;;
48215;SDS011;34005;48.844;10.098;2024-03-02T04:31:53;25.95;;;16.85;;
48215;SDS011;34005;48.844;10.098;2024-03-02T04:34:21;23.35;;;16.20;;
48215;SDS011;34005;48.844;10.098;2024-03-02T04:36:49;26.80;;;16.50;;
48215;SDS011;34005;48.844;10.098;2024-03-02T04:39:18;27.00;;;17.38;;
48215;SDS011;34005;48.844;10.098;2024-03-02T04:41:45;27.50;;;17.13;;
48215;SDS011;34005;48.844;10.098;2024-03-02T04:44:14;27.55;;;17.33;;
48215;SDS011;34005;48.844;10.098;2024-03-02T04:46:41;28.88;;;16.80;;
48215;SDS011;34005;48.844;10.098;2024-03-02T04:49:09;27.15;;;16.38;;
48215;SDS011;34005;48.844;10.098;2024-03-02T04:51:36;26.63;;;16.73;;
48215;SDS011;34005;48.844;10.098;2024-03-02T04:54:04;22.88;;;15.07;;
48215;SDS011;34005;48.844;10.098;2024-03-02T04:56:33;24.92;;;17.05;;
48215;SDS011;34005;48.844;10.098;2024-03-02T04:59:11;24.17;;;14.85;;
48215;SDS011;34005;48.844;10.098;2024-03-02T05:01:38;24.15;;;15.30;;
48215;SDS011;34005;48.844;10.098;2024-03-02T05:04:06;25.48;;;15.65;;
48215;SDS011;34005;48.844;10.098;2024-03-02T05:06:33;25.48;;;15.90;;
48215;SDS011;34005;48.844;10.098;2024-03-02T05:09:01;24.42;;;15.52;;
48215;SDS011;34005;48.844;10.098;2024-03-02T05:11:28;22.60;;;14.95;;
48215;SDS011;34005;48.844;10.098;2024-03-02T05:14:16;24.27;;;15.32;;
48215;SDS011;34005;48.844;10.098;2024-03-02T05:16:44;23.33;;;15.05;;
48215;SDS011;34005;48.844;10.098;2024-03-02T05:19:11;22.00;;;14.50;;
48215;SDS011;34005;48.844;10.098;2024-03-02T05:21:39;23.40;;;14.82;;
48215;SDS011;34005;48.844;10.098;2024-03-02T05:24:07;24.20;;;15.23;;
48215;SDS011;34005;48.844;10.098;2024-03-02T05:26:34;23.80;;;15.88;;
48215;SDS011;34005;48.844;10.098;2024-03-02T05:29:02;21.50;;;14.05;;
48215;SDS011;34005;48.844;10.098;2024-03-02T05:31:31;21.95;;;14.55;;
48215;SDS011;34005;48.844;10.098;2024-03-02T05:33:59;25.52;;;14.80;;
48215;SDS011;34005;48.844;10.098;2024-03-02T05:36:27;25.23;;;16.15;;
48215;SDS011;34005;48.844;10.098;2024-03-02T05:38:54;24.73;;;15.57;;
48215;SDS011;34005;48.844;10.098;2024-03-02T05:41:22;22.90;;;14.88;;
48215;SDS011;34005;48.844;10.098;2024-03-02T05:43:49;24.42;;;16.40;;
48215;SDS011;34005;48.844;10.098;2024-03-02T05:46:17;22.00;;;15.15;;
48215;SDS011;34005;48.844;10.098;2024-03-02T05:48:46;26.02;;;15.45;;
48215;SDS011;34005;48.844;10.098;2024-03-02T05:51:13;24.40;;;15.15;;
48215;SDS011;34005;48.844;10.098;2024-03-02T05:53:41;25.17;;;15.43;;
48215;SDS011;34005;48.844;10.098;2024-03-02T05:56:09;26.63;;;15.05;;
48215;SDS011;34005;48.844;10.098;2024-03-02T05:58:38;22.85;;;14.75;;
48215;SDS011;34005;48.844;10.098;2024-03-02T06:01:19;27.23;;;16.27;;
48215;SDS011;34005;48.844;10.098;2024-03-02T06:03:50;26.05;;;16.45;;
48215;SDS011;34005;48.844;10.098;2024-03-02T06:06:18;24.75;;;15.82;;
48215;SDS011;34005;48.844;10.098;2024-03-02T06:08:45;24.83;;;15.70;;
48215;SDS011;34005;48.844;10.098;2024-03-02T06:11:13;24.75;;;15.43;;
48215;SDS011;34005;48.844;10.098;2024-03-02T06:13:40;26.35;;;16.52;;
48215;SDS011;34005;48.844;10.098;2024-03-02T06:16:08;22.65;;;14.38;;
48215;SDS011;34005;48.844;10.098;2024-03-02T06:18:35;26.08;;;17.13;;
48215;SDS011;34005;48.844;10.098;2024-03-02T06:21:05;24.20;;;15.45;;
48215;SDS011;34005;48.844;10.098;2024-03-02T06:23:32;24.45;;;15.55;;
48215;SDS011;34005;48.844;10.098;2024-03-02T06:26:00;25.50;;;15.38;;
48215;SDS011;34005;48.844;10.098;2024-03-02T06:28:28;24.88;;;15.02;;
48215;SDS011;34005;48.844;10.098;2024-03-02T06:30:56;23.63;;;14.82;;
48215;SDS011;34005;48.844;10.098;2024-03-02T06:33:23;25.27;;;14.80;;
48215;SDS011;34005;48.844;10.098;2024-03-02T06:35:51;23.60;;;14.93;;
48215;SDS011;34005;48.844;10.098;2024-03-02T06:38:20;31.85;;;16.13;;
48215;SDS011;34005;48.844;10.098;2024-03-02T06:40:48;22.15;;;13.38;;
48215;SDS011;34005;48.844;10.098;2024-03-02T06:43:15;25.33;;;14.27;;
48215;SDS011;34005;48.844;10.098;2024-03-02T06:45:43;25.88;;;15.02;;
48215;SDS011;34005;48.844;10.098;2024-03-02T06:48:11;21.45;;;14.13;;
48215;SDS011;34005;48.844;10.098;2024-03-02T06:50:38;19.25;;;12.82;;
48215;SDS011;34005;48.844;10.098;2024-03-02T06:53:06;19.65;;;12.50;;
48215;SDS011;34005;48.844;10.098;2024-03-02T06:55:35;19.88;;;12.35;;
48215;SDS011;34005;48.844;10.098;2024-03-02T06:58:02;23.92;;;14.75;;
48215;SDS011;34005;48.844;10.098;2024-03-02T07:00:31;22.40;;;15.05;;
48215;SDS011;34005;48.844;10.098;2024-03-02T07:02:58;23.55;;;14.35;;
48215;SDS011;34005;48.844;10.098;2024-03-02T07:05:26;22.40;;;14.00;;
48215;SDS011;34005;48.844;10.098;2024-03-02T07:07:54;21.70;;;13.23;;
48215;SDS011;34005;48.844;10.098;2024-03-02T07:10:21;19.83;;;13.57;;
48215;SDS011;34005;48.844;10.098;2024-03-02T07:12:50;22.63;;;14.48;;
48215;SDS011;34005;48.844;10.098;2024-03-02T07:15:18;19.77;;;13.18;;
48215;SDS011;34005;48.844;10.098;2024-03-02T07:18:09;22.45;;;13.48;;
48215;SDS011;34005;48.844;10.098;2024-03-02T07:20:36;20.23;;;13.55;;
48215;SDS011;34005;48.844;10.098;2024-03-02T07:23:05;22.60;;;14.75;;
48215;SDS011;34005;48.844;10.098;2024-03-02T07:25:33;20.25;;;13.82;;
48215;SDS011;34005;48.844;10.098;2024-03-02T07:28:05;21.50;;;13.50;;
48215;SDS011;34005;48.844;10.098;2024-03-02T07:30:33;22.85;;;14.40;;
48215;SDS011;34005;48.844;10.098;2024-03-02T07:33:01;21.98;;;13.65;;
48215;SDS011;34005;48.844;10.098;2024-03-02T07:35:28;23.50;;;14.70;;
48215;SDS011;34005;48.844;10.098;2024-03-02T07:37:58;23.27;;;14.32;;
48215;SDS011;34005;48.844;10.098;2024-03-02T07:40:25;21.67;;;13.60;;
48215;SDS011;34005;48.844;10.098;2024-03-02T07:42:53;20.38;;;13.38;;
48215;SDS011;34005;48.844;10.098;2024-03-02T07:45:22;20.33;;;13.60;;
48215;SDS011;34005;48.844;10.098;2024-03-02T07:47:50;20.38;;;14.10;;
48215;SDS011;34005;48.844;10.098;2024-03-02T07:50:18;20.35;;;13.30;;
48215;SDS011;34005;48.844;10.098;2024-03-02T07:52:45;21.83;;;14.45;;
48215;SDS011;34005;48.844;10.098;2024-03-02T07:55:13;19.95;;;13.77;;
48215;SDS011;34005;48.844;10.098;2024-03-02T07:57:40;19.65;;;13.52;;
48215;SDS011;34005;48.844;10.098;2024-03-02T08:00:09;18.98;;;13.50;;
48215;SDS011;34005;48.844;10.098;2024-03-02T08:02:39;21.17;;;13.68;;
48215;SDS011;34005;48.844;10.098;2024-03-02T08:05:08;19.08;;;13.63;;
48215;SDS011;34005;48.844;10.098;2024-03-02T08:07:37;17.95;;;12.90;;
48215;SDS011;34005;48.844;10.098;2024-03-02T08:10:05;17.25;;;12.38;;
48215;SDS011;34005;48.844;10.098;2024-03-02T08:12:33;19.95;;;13.30;;
48215;SDS011;34005;48.844;10.098;2024-03-02T08:15:01;18.98;;;13.48;;
48215;SDS011;34005;48.844;10.098;2024-03-02T08:17:29;17.52;;;11.93;;
48215;SDS011;34005;48.844;10.098;2024-03-02T08:19:59;15.73;;;11.38;;
48215;SDS011;34005;48.844;10.098;2024-03-02T08:22:27;16.70;;;11.32;;
48215;SDS011;34005;48.844;10.098;2024-03-02T08:24:55;14.70;;;11.05;;
48215;SDS011;34005;48.844;10.098;2024-03-02T08:27:22;15.27;;;11.27;;
48215;SDS011;34005;48.844;10.098;2024-03-02T08:29:50;15.10;;;10.45;;
48215;SDS011;34005;48.844;10.098;2024-03-02T08:32:17;14.55;;;10.50;;
48215;SDS011;34005;48.844;10.098;2024-03-02T08:34:45;15.65;;;11.10;;
48215;SDS011;34005;48.844;10.098;2024-03-02T08:37:14;12.25;;;9.25;;
48215;SDS011;34005;48.844;10.098;2024-03-02T08:39:42;14.13;;;9.65;;
48215;SDS011;34005;48.844;10.098;2024-03-02T08:42:10;12.98;;;9.98;;
48215;SDS011;34005;48.844;10.098;2024-03-02T08:44:38;11.13;;;8.93;;
48215;SDS011;34005;48.844;10.098;2024-03-02T08:47:05;12.63;;;9.68;;
48215;SDS011;34005;48.844;10.098;2024-03-02T08:49:33;12.02;;;9.13;;
48215;SDS011;34005;48.844;10.098;2024-03-02T08:52:00;11.25;;;8.68;;
48215;SDS011;34005;48.844;10.098;2024-03-02T08:54:29;13.55;;;8.73;;
48215;SDS011;34005;48.844;10.098;2024-03-02T08:56:57;10.30;;;8.30;;
48215;SDS011;34005;48.844;10.098;2024-03-02T08:59:25;11.88;;;8.90;;
48215;SDS011;34005;48.844;10.098;2024-03-02T09:01:54;11.77;;;8.57;;
48215;SDS011;34005;48.844;10.098;2024-03-02T09:04:21;13.80;;;8.73;;
48215;SDS011;34005;48.844;10.098;2024-03-02T09:06:53;11.60;;;8.50;;
48215;SDS011;34005;48.844;10.098;2024-03-02T09:09:20;10.65;;;8.93;;
48215;SDS011;34005;48.844;10.098;2024-03-02T09:11:49;11.00;;;8.68;;
48215;SDS011;34005;48.844;10.098;2024-03-02T09:14:17;10.13;;;7.80;;
48215;SDS011;34005;48.844;10.098;2024-03-02T09:16:45;8.95;;;7.57;;
48215;SDS011;34005;48.844;10.098;2024-03-02T09:19:13;8.80;;;7.00;;
48215;SDS011;34005;48.844;10.098;2024-03-02T09:21:41;11.77;;;7.93;;
48215;SDS011;34005;48.844;10.098;2024-03-02T09:24:10;9.25;;;7.65;;
48215;SDS011;34005;48.844;10.098;2024-03-02T09:26:42;9.05;;;6.47;;
48215;SDS011;34005;48.844;10.098;2024-03-02T09:29:11;8.63;;;6.70;;
48215;SDS011;34005;48.844;10.098;2024-03-02T09:31:39;8.45;;;6.43;;
48215;SDS011;34005;48.844;10.098;2024-03-02T09:34:07;10.05;;;7.35;;
48215;SDS011;34005;48.844;10.098;2024-03-02T09:36:34;9.52;;;6.90;;
48215;SDS011;34005;48.844;10.098;2024-03-02T09:39:02;8.70;;;6.72;;
48215;SDS011;34005;48.844;10.098;2024-03-02T09:41:31;8.18;;;7.30;;
48215;SDS011;34005;48.844;10.098;2024-03-02T09:44:00;8.27;;;6.85;;
48215;SDS011;34005;48.844;10.098;2024-03-02T09:46:29;7.47;;;5.97;;
48215;SDS011;34005;48.844;10.098;2024-03-02T09:48:57;7.22;;;6.15;;
48215;SDS011;34005;48.844;10.098;2024-03-02T09:51:26;7.13;;;6.32;;
48215;SDS011;34005;48.844;10.098;2024-03-02T09:53:54;7.72;;;5.90;;
48215;SDS011;34005;48.844;10.098;2024-03-02T09:56:38;6.35;;;5.50;;
48215;SDS011;34005;48.844;10.098;2024-03-02T09:59:06;6.88;;;5.15;;
48215;SDS011;34005;48.844;10.098;2024-03-02T10:01:35;5.72;;;4.80;;
48215;SDS011;34005;48.844;10.098;2024-03-02T10:04:02;7.53;;;4.93;;
48215;SDS011;34005;48.844;10.098;2024-03-02T10:06:32;6.00;;;4.88;;
48215;SDS011;34005;48.844;10.098;2024-03-02T10:09:00;5.43;;;4.63;;
48215;SDS011;34005;48.844;10.098;2024-03-02T10:11:28;6.43;;;4.30;;
48215;SDS011;34005;48.844;10.098;2024-03-02T10:14:04;5.03;;;4.53;;
48215;SDS011;34005;48.844;10.098;2024-03-02T10:16:38;5.45;;;4.95;;
48215;SDS011;34005;48.844;10.098;2024-03-02T10:19:16;5.10;;;4.60;;
48215;SDS011;34005;48.844;10.098;2024-03-02T10:21:45;4.30;;;3.78;;
48215;SDS011;34005;48.844;10.098;2024-03-02T10:24:13;4.28;;;3.78;;
48215;SDS011;34005;48.844;10.098;2024-03-02T10:26:41;3.90;;;3.40;;
48215;SDS011;34005;48.844;10.098;2024-03-02T10:29:09;4.40;;;3.53;;
48215;SDS011;34005;48.844;10.098;2024-03-02T10:31:39;3.95;;;3.58;;
48215;SDS011;34005;48.844;10.098;2024-03-02T10:34:07;4.38;;;3.33;;
48215;SDS011;34005;48.844;10.098;2024-03-02T10:36:35;3.30;;;3.00;;
48215;SDS011;34005;48.844;10.098;2024-03-02T10:39:04;3.83;;;3.42;;
48215;SDS011;34005;48.844;10.098;2024-03-02T10:41:33;6.05;;;3.42;;
48215;SDS011;34005;48.844;10.098;2024-03-02T10:44:02;5.10;;;3.13;;
48215;SDS011;34005;48.844;10.098;2024-03-02T10:46:30;3.47;;;3.03;;
48215;SDS011;34005;48.844;10.098;2024-03-02T10:49:00;4.38;;;2.75;;
48215;SDS011;34005;48.844;10.098;2024-03-02T10:51:33;3.88;;;2.40;;
48215;SDS011;34005;48.844;10.098;2024-03-02T10:54:03;3.17;;;2.33;;
48215;SDS011;34005;48.844;10.098;2024-03-02T10:56:33;2.55;;;2.35;;
48215;SDS011;34005;48.844;10.098;2024-03-02T10:59:03;4.13;;;2.13;;
48215;SDS011;34005;48.844;10.098;2024-03-02T11:01:33;2.92;;;2.33;;
48215;SDS011;34005;48.844;10.098;2024-03-02T11:04:03;2.35;;;2.15;;
48215;SDS011;34005;48.844;10.098;2024-03-02T11:06:35;1.70;;;1.60;;
48215;SDS011;34005;48.844;10.098;2024-03-02T11:09:06;1.73;;;1.63;;
48215;SDS011;34005;48.844;10.098;2024-03-02T11:11:36;3.08;;;1.88;;
48215;SDS011;34005;48.844;10.098;2024-03-02T11:14:07;3.13;;;1.95;;
48215;SDS011;34005;48.844;10.098;2024-03-02T11:16:38;1.70;;;1.40;;
48215;SDS011;34005;48.844;10.098;2024-03-02T11:19:10;3.65;;;1.52;;
48215;SDS011;34005;48.844;10.098;2024-03-02T11:21:43;1.30;;;1.20;;
48215;SDS011;34005;48.844;10.098;2024-03-02T11:24:27;1.00;;;1.00;;
48215;SDS011;34005;48.844;10.098;2024-03-02T11:27:03;1.90;;;0.80;;
48215;SDS011;34005;48.844;10.098;2024-03-02T11:29:44;4.03;;;0.73;;
48215;SDS011;34005;48.844;10.098;2024-03-02T11:32:20;0.80;;;0.63;;
48215;SDS011;34005;48.844;10.098;2024-03-02T11:34:50;1.67;;;1.23;;
48215;SDS011;34005;48.844;10.098;2024-03-02T11:37:19;1.20;;;1.10;;
48215;SDS011;34005;48.844;10.098;2024-03-02T11:39:48;1.35;;;1.25;;
48215;SDS011;34005;48.844;10.098;2024-03-02T11:42:17;1.40;;;1.30;;
48215;SDS011;34005;48.844;10.098;2024-03-02T11:44:46;2.83;;;1.33;;
48215;SDS011;34005;48.844;10.098;2024-03-02T11:47:16;4.40;;;2.40;;
48215;SDS011;34005;48.844;10.098;2024-03-02T11:49:44;2.05;;;1.85;;
48215;SDS011;34005;48.844;10.098;2024-03-02T11:52:15;2.42;;;1.83;;
48215;SDS011;34005;48.844;10.098;2024-03-02T11:54:44;4.57;;;2.78;;
48215;SDS011;34005;48.844;10.098;2024-03-02T11:57:14;2.45;;;2.20;;
48215;SDS011;34005;48.844;10.098;2024-03-02T11:59:43;1.98;;;1.77;;
48215;SDS011;34005;48.844;10.098;2024-03-02T12:02:14;4.05;;;2.35;;
48215;SDS011;34005;48.844;10.098;2024-03-02T12:04:44;3.25;;;2.25;;
48215;SDS011;34005;48.844;10.098;2024-03-02T12:07:19;4.72;;;1.98;;
48215;SDS011;34005;48.844;10.098;2024-03-02T12:09:48;3.22;;;1.50;;
48215;SDS011;34005;48.844;10.098;2024-03-02T12:12:16;1.52;;;1.40;;
48215;SDS011;34005;48.844;10.098;2024-03-02T12:14:50;1.92;;;1.20;;
48215;SDS011;34005;48.844;10.098;2024-03-02T12:17:18;4.45;;;1.10;;
48215;SDS011;34005;48.844;10.098;2024-03-02T12:19:46;1.63;;;1.05;;
48215;SDS011;34005;48.844;10.098;2024-03-02T12:22:14;1.67;;;1.15;;
48215;SDS011;34005;48.844;10.098;2024-03-02T12:24:43;1.17;;;0.95;;
48215;SDS011;34005;48.844;10.098;2024-03-02T12:27:12;1.20;;;1.10;;
48215;SDS011;34005;48.844;10.098;2024-03-02T12:29:42;1.15;;;1.05;;
48215;SDS011;34005;48.844;10.098;2024-03-02T12:32:10;4.22;;;1.30;;
48215;SDS011;34005;48.844;10.098;2024-03-02T12:34:38;0.50;;;0.50;;
48215;SDS011;34005;48.844;10.098;2024-03-02T12:37:05;1.08;;;0.98;;
48215;SDS011;34005;48.844;10.098;2024-03-02T12:39:33;0.93;;;0.90;;
48215;SDS011;34005;48.844;10.098;2024-03-02T12:42:03;1.05;;;0.90;;
48215;SDS011;34005;48.844;10.098;2024-03-02T12:44:31;1.20;;;1.10;;
48215;SDS011;34005;48.844;10.098;2024-03-02T12:46:58;2.28;;;1.00;;
48215;SDS011;34005;48.844;10.098;2024-03-02T12:49:27;2.05;;;0.95;;
48215;SDS011;34005;48.844;10.098;2024-03-02T12:51:57;1.40;;;1.30;;
48215;SDS011;34005;48.844;10.098;2024-03-02T12:54:24;4.15;;;1.67;;
48215;SDS011;34005;48.844;10.098;2024-03-02T12:56:53;2.92;;;1.75;;
48215;SDS011;34005;48.844;10.098;2024-03-02T12:59:23;1.50;;;1.40;;
48215;SDS011;34005;48.844;10.098;2024-03-02T13:01:56;1.52;;;1.42;;
48215;SDS011;34005;48.844;10.098;2024-03-02T13:04:24;1.98;;;1.58;;
48215;SDS011;34005;48.844;10.098;2024-03-02T13:06:54;1.58;;;1.48;;
48215;SDS011;34005;48.844;10.098;2024-03-02T13:09:24;2.05;;;1.50;;
48215;SDS011;34005;48.844;10.098;2024-03-02T13:11:52;1.23;;;1.13;;
48215;SDS011;34005;48.844;10.098;2024-03-02T13:14:22;3.58;;;1.42;;
48215;SDS011;34005;48.844;10.098;2024-03-02T13:16:51;1.50;;;0.90;;
48215;SDS011;34005;48.844;10.098;2024-03-02T13:19:19;1.38;;;1.13;;
48215;SDS011;34005;48.844;10.098;2024-03-02T13:21:47;1.33;;;1.23;;
48215;SDS011;34005;48.844;10.098;2024-03-02T13:24:14;1.65;;;1.20;;
48215;SDS011;34005;48.844;10.098;2024-03-02T13:26:42;2.10;;;1.67;;
48215;SDS011;34005;48.844;10.098;2024-03-02T13:29:09;1.60;;;1.50;;
48215;SDS011;34005;48.844;10.098;2024-03-02T13:31:39;3.97;;;1.83;;
48215;SDS011;34005;48.844;10.098;2024-03-02T13:34:07;1.60;;;1.50;;
48215;SDS011;34005;48.844;10.098;2024-03-02T13:36:35;3.10;;;2.00;;
48215;SDS011;34005;48.844;10.098;2024-03-02T13:39:03;1.58;;;1.48;;
48215;SDS011;34005;48.844;10.098;2024-03-02T13:41:31;2.03;;;1.92;;
48215;SDS011;34005;48.844;10.098;2024-03-02T13:43:59;2.80;;;1.77;;
48215;SDS011;34005;48.844;10.098;2024-03-02T13:46:27;3.25;;;2.00;;
48215;SDS011;34005;48.844;10.098;2024-03-02T13:48:55;2.65;;;2.45;;
48215;SDS011;34005;48.844;10.098;2024-03-02T13:51:23;3.45;;;3.15;;
48215;SDS011;34005;48.844;10.098;2024-03-02T13:53:51;4.05;;;2.60;;
48215;SDS011;34005;48.844;10.098;2024-03-02T13:56:19;3.55;;;3.20;;
48215;SDS011;34005;48.844;10.098;2024-03-02T13:58:46;4.15;;;3.42;;
48215;SDS011;34005;48.844;10.098;2024-03-02T14:01:14;4.55;;;4.15;;
48215;SDS011;34005;48.844;10.098;2024-03-02T14:03:41;4.85;;;3.65;;
48215;SDS011;34005;48.844;10.098;2024-03-02T14:06:10;4.10;;;3.70;;
48215;SDS011;34005;48.844;10.098;2024-03-02T14:08:38;4.13;;;3.47;;
48215;SDS011;34005;48.844;10.098;2024-03-02T14:11:05;4.75;;;3.97;;
48215;SDS011;34005;48.844;10.098;2024-03-02T14:13:33;3.35;;;3.05;;
48215;SDS011;34005;48.844;10.098;2024-03-02T14:16:01;3.70;;;3.30;;
48215;SDS011;34005;48.844;10.098;2024-03-02T14:18:29;3.28;;;2.97;;
48215;SDS011;34005;48.844;10.098;2024-03-02T14:20:56;3.17;;;2.88;;
48215;SDS011;34005;48.844;10.098;2024-03-02T14:23:25;2.67;;;2.47;;
48215;SDS011;34005;48.844;10.098;2024-03-02T14:25:54;3.42;;;3.08;;
48215;SDS011;34005;48.844;10.098;2024-03-02T14:28:22;3.95;;;3.28;;
48215;SDS011;34005;48.844;10.098;2024-03-02T14:31:09;6.30;;;3.33;;